Time;durP1;ratioP1;P1;durP2;ratioP2;P2;SDS_P1;SDS_P2;PMS_P1;PMS_P2;Temp;Humidity;BMP_temperature;BMP_pressure;BME280_temperature;BME280_humidity;BME280_pressure;Samples;Min_cycle;Max_cycle;Signal;HPM_P1;HPM_P2
2023/12/29 00:00:03;;;;;;;2.57;1.20;;;8.00;99.90;;;;;;4944020;28;20243;-56
2023/12/29 00:02:28;;;;;;;1.70;1.00;;;8.00;99.90;;;;;;4940175;29;20773;-55
2023/12/29 00:04:54;;;;;;;2.23;1.10;;;8.00;99.90;;;;;;4946272;28;20265;-55
2023/12/29 00:07:20;;;;;;;1.80;1.10;;;8.10;99.90;;;;;;4954334;28;20213;-58
2023/12/29 00:09:45;;;;;;;2.07;1.10;;;8.10;99.90;;;;;;4946307;28;20237;-54
2023/12/29 00:12:11;;;;;;;2.17;1.30;;;8.10;99.90;;;;;;4953544;28;20190;-57
2023/12/29 00:14:38;;;;;;;2.43;1.10;;;8.00;99.90;;;;;;4954227;28;20638;-53
2023/12/29 00:17:04;;;;;;;3.23;1.27;;;8.00;99.90;;;;;;4938009;28;20183;-57
2023/12/29 00:19:29;;;;;;;3.30;1.00;;;8.00;99.90;;;;;;4940462;28;20194;-56
2023/12/29 00:21:55;;;;;;;3.30;1.10;;;8.00;99.90;;;;;;4943825;29;20732;-53
2023/12/29 00:24:20;;;;;;;2.90;1.20;;;8.10;99.90;;;;;;4946094;28;20789;-56
2023/12/29 00:26:47;;;;;;;3.07;0.80;;;8.00;99.90;;;;;;4945848;28;20191;-57
2023/12/29 00:29:15;;;;;;;1.83;1.10;;;7.90;99.90;;;;;;4942848;28;20219;-54
2023/12/29 00:31:40;;;;;;;4.10;1.20;;;7.80;99.90;;;;;;4949275;29;20190;-57
2023/12/29 00:34:06;;;;;;;5.33;1.30;;;7.80;99.90;;;;;;4949391;29;20230;-58
2023/12/29 00:36:32;;;;;;;3.17;1.10;;;7.80;99.90;;;;;;4948687;29;20735;-55
2023/12/29 00:38:57;;;;;;;1.73;0.90;;;7.80;99.90;;;;;;4951953;28;20218;-55
2023/12/29 00:41:23;;;;;;;2.20;1.10;;;7.80;99.90;;;;;;4947467;29;20205;-56
2023/12/29 00:43:48;;;;;;;4.00;1.43;;;7.80;99.90;;;;;;4944867;28;20226;-53
2023/12/29 00:46:15;;;;;;;2.87;1.27;;;7.80;99.90;;;;;;4941992;28;20190;-57
2023/12/29 00:48:41;;;;;;;2.77;1.43;;;7.90;99.90;;;;;;4934654;29;20590;-54
2023/12/29 00:51:07;;;;;;;1.70;1.20;;;8.00;99.90;;;;;;4937033;29;20197;-55
2023/12/29 00:53:34;;;;;;;4.77;1.10;;;8.10;99.90;;;;;;4944873;28;20246;-55
2023/12/29 00:56:00;;;;;;;1.77;1.27;;;8.10;99.90;;;;;;4943178;28;20201;-59
2023/12/29 00:58:26;;;;;;;3.37;1.47;;;8.10;99.90;;;;;;4939879;29;20186;-55
2023/12/29 01:00:51;;;;;;;6.87;1.37;;;8.20;99.90;;;;;;4953423;28;20672;-54
2023/12/29 01:03:17;;;;;;;3.90;1.70;;;8.30;99.90;;;;;;4948733;28;20250;-54
2023/12/29 01:05:43;;;;;;;3.53;1.60;;;8.40;99.90;;;;;;4941831;29;20565;-55
2023/12/29 01:08:08;;;;;;;2.53;1.40;;;8.40;99.90;;;;;;4937244;28;20182;-55
2023/12/29 01:10:34;;;;;;;2.27;1.40;;;8.40;99.90;;;;;;4945208;28;20194;-53
2023/12/29 01:12:59;;;;;;;5.37;1.47;;;8.40;99.90;;;;;;4944323;28;20199;-56
2023/12/29 01:15:25;;;;;;;2.47;1.33;;;8.50;99.90;;;;;;4940544;29;20203;-55
2023/12/29 01:17:51;;;;;;;2.63;1.47;;;8.50;99.90;;;;;;4950329;29;20207;-58
2023/12/29 01:20:16;;;;;;;4.77;1.70;;;8.50;99.90;;;;;;4953092;28;20206;-55
2023/12/29 01:22:42;;;;;;;4.90;1.93;;;8.50;99.90;;;;;;4952338;28;20708;-52
2023/12/29 01:25:07;;;;;;;5.80;1.63;;;8.50;99.90;;;;;;4949863;28;20214;-53
2023/12/29 01:27:33;;;;;;;3.83;1.40;;;8.50;99.90;;;;;;4947880;29;20190;-55
2023/12/29 01:29:59;;;;;;;3.47;1.60;;;8.50;99.90;;;;;;4951086;28;20343;-54
2023/12/29 01:32:25;;;;;;;5.80;1.80;;;8.40;99.90;;;;;;4938210;28;20639;-53
2023/12/29 01:34:52;;;;;;;3.43;1.70;;;8.40;99.90;;;;;;4952803;28;20192;-57
2023/12/29 01:37:18;;;;;;;2.97;1.60;;;8.40;99.90;;;;;;4945173;28;20549;-56
2023/12/29 01:39:43;;;;;;;5.43;1.80;;;8.30;99.90;;;;;;4945101;28;20202;-54
2023/12/29 01:42:11;;;;;;;4.80;1.63;;;8.30;99.90;;;;;;4951699;28;20340;-51
2023/12/29 01:44:36;;;;;;;5.50;1.57;;;8.30;99.90;;;;;;4944903;28;20577;-56
2023/12/29 01:47:05;;;;;;;7.63;1.70;;;8.30;99.90;;;;;;4944471;28;20197;-53
2023/12/29 01:49:31;;;;;;;3.90;1.53;;;8.30;99.90;;;;;;4952671;28;20189;-56
2023/12/29 01:52:00;;;;;;;3.47;1.70;;;8.30;99.90;;;;;;4942639;28;20186;-57
2023/12/29 01:54:28;;;;;;;3.47;1.60;;;8.30;99.90;;;;;;4946949;29;20209;-58
2023/12/29 01:56:56;;;;;;;6.47;1.90;;;8.20;99.90;;;;;;4944785;28;20269;-56
2023/12/29 01:59:23;;;;;;;5.07;2.23;;;8.10;99.90;;;;;;4952509;28;20201;-56
2023/12/29 02:01:49;;;;;;;5.67;1.70;;;8.10;99.90;;;;;;4951766;28;20209;-56
2023/12/29 02:04:17;;;;;;;4.10;1.73;;;8.00;99.90;;;;;;4940780;28;20912;-52
2023/12/29 02:06:42;;;;;;;3.83;1.80;;;7.90;99.90;;;;;;4940417;29;20269;-56
2023/12/29 02:09:08;;;;;;;5.13;1.90;;;8.00;99.90;;;;;;4936466;28;20326;-53
2023/12/29 02:11:34;;;;;;;4.17;1.50;;;8.00;99.90;;;;;;4944124;28;20194;-53
2023/12/29 02:14:00;;;;;;;7.17;2.10;;;8.00;99.90;;;;;;4952097;28;20206;-51
2023/12/29 02:16:43;;;;;;;4.53;1.90;;;8.10;99.90;;;;;;4952599;28;20202;-57
2023/12/29 02:19:36;;;;;;;6.23;1.77;;;8.10;99.90;;;;;;4952748;28;20182;-52
2023/12/29 02:22:02;;;;;;;3.67;1.30;;;8.10;99.90;;;;;;4944016;28;20655;-55
2023/12/29 02:24:27;;;;;;;4.70;1.67;;;8.10;99.90;;;;;;4952424;28;20216;-54
2023/12/29 02:27:02;;;;;;;5.77;1.63;;;8.10;99.90;;;;;;4951371;28;20182;-54
2023/12/29 02:29:31;;;;;;;7.20;2.03;;;8.10;99.90;;;;;;4947027;29;20205;-53
2023/12/29 02:31:59;;;;;;;4.33;1.50;;;8.10;99.90;;;;;;4942478;28;20198;-56
2023/12/29 02:34:26;;;;;;;5.57;1.73;;;8.10;99.90;;;;;;4933477;29;20278;-52
2023/12/29 02:36:53;;;;;;;3.83;1.93;;;8.20;99.90;;;;;;4935173;29;20259;-57
2023/12/29 02:39:19;;;;;;;7.27;1.47;;;8.20;99.90;;;;;;4953427;28;20190;-54
2023/12/29 02:41:44;;;;;;;8.10;1.90;;;8.10;99.90;;;;;;4936532;28;20241;-53
2023/12/29 02:44:10;;;;;;;5.27;1.50;;;8.10;99.90;;;;;;4951517;29;20218;-53
2023/12/29 02:46:35;;;;;;;6.23;1.63;;;8.10;99.90;;;;;;4945324;28;20380;-58
2023/12/29 02:49:01;;;;;;;5.67;1.70;;;8.30;99.90;;;;;;4950634;29;20647;-55
2023/12/29 02:51:27;;;;;;;5.80;2.07;;;8.30;99.90;;;;;;4938611;28;20274;-56
2023/12/29 02:53:52;;;;;;;5.73;1.50;;;8.40;99.90;;;;;;4947983;28;20690;-58
2023/12/29 02:56:18;;;;;;;5.23;1.40;;;8.40;99.90;;;;;;4944862;29;20186;-56
2023/12/29 02:58:45;;;;;;;6.13;1.40;;;8.40;99.90;;;;;;4951869;28;20222;-53
2023/12/29 03:01:11;;;;;;;14.07;1.70;;;8.40;99.90;;;;;;4951433;28;20194;-57
2023/12/29 03:03:39;;;;;;;3.97;1.43;;;8.40;99.90;;;;;;4951330;28;20574;-55
2023/12/29 03:06:05;;;;;;;6.10;1.43;;;8.40;99.90;;;;;;4951759;28;20194;-54
2023/12/29 03:08:32;;;;;;;8.20;2.23;;;8.40;99.90;;;;;;4944232;28;20218;-58
2023/12/29 03:10:58;;;;;;;5.90;1.60;;;8.40;99.90;;;;;;4943933;28;20261;-53
2023/12/29 03:13:23;;;;;;;6.23;2.00;;;8.40;99.90;;;;;;4938300;28;20298;-53
2023/12/29 03:15:49;;;;;;;15.73;1.73;;;8.40;99.90;;;;;;4940560;29;20249;-53
2023/12/29 03:18:14;;;;;;;2.53;1.50;;;8.30;99.90;;;;;;4952384;28;20190;-53
2023/12/29 03:20:40;;;;;;;6.70;1.73;;;8.30;99.90;;;;;;4955397;28;20277;-51
2023/12/29 03:23:05;;;;;;;6.70;1.60;;;8.30;99.90;;;;;;4954254;28;20226;-54
2023/12/29 03:25:31;;;;;;;6.57;1.57;;;8.40;99.90;;;;;;4955281;28;20601;-56
2023/12/29 03:27:56;;;;;;;6.63;1.73;;;8.30;99.90;;;;;;4947006;28;20183;-56
2023/12/29 03:30:22;;;;;;;9.97;2.37;;;8.30;99.90;;;;;;4950659;28;20191;-56
2023/12/29 03:32:48;;;;;;;4.83;1.70;;;8.30;99.90;;;;;;4950766;28;20281;-57
2023/12/29 03:35:13;;;;;;;5.63;1.53;;;8.30;99.90;;;;;;4938970;29;20194;-55
2023/12/29 03:37:39;;;;;;;4.50;1.80;;;8.30;99.90;;;;;;4955052;28;20262;-52
2023/12/29 03:40:05;;;;;;;5.93;1.67;;;8.30;99.90;;;;;;4955161;28;20531;-54
2023/12/29 03:42:30;;;;;;;3.60;1.80;;;8.30;99.90;;;;;;4954125;28;20202;-52
2023/12/29 03:44:57;;;;;;;5.50;1.80;;;8.20;99.90;;;;;;4954584;28;20696;-56
2023/12/29 03:47:23;;;;;;;7.57;1.93;;;8.20;99.90;;;;;;4954745;28;20174;-57
2023/12/29 03:49:49;;;;;;;4.60;1.57;;;8.20;99.90;;;;;;4946655;28;20248;-51
2023/12/29 03:52:14;;;;;;;4.90;1.40;;;8.20;99.90;;;;;;4953966;28;20214;-53
2023/12/29 03:54:40;;;;;;;6.67;1.57;;;8.30;99.90;;;;;;4940194;28;20183;-52
2023/12/29 03:57:05;;;;;;;10.80;1.57;;;8.30;99.90;;;;;;4943165;29;20600;-54
2023/12/29 03:59:31;;;;;;;3.30;1.33;;;8.30;99.90;;;;;;4948898;29;20576;-53
2023/12/29 04:01:56;;;;;;;8.53;1.57;;;8.40;99.90;;;;;;4945580;28;20191;-53
2023/12/29 04:04:22;;;;;;;7.57;1.60;;;8.30;99.90;;;;;;4949700;28;20341;-53
2023/12/29 04:06:47;;;;;;;5.97;1.10;;;8.30;99.90;;;;;;4943221;29;20190;-57
2023/12/29 04:09:13;;;;;;;7.07;1.43;;;8.30;99.90;;;;;;4946530;29;20183;-53
2023/12/29 04:11:39;;;;;;;4.93;1.30;;;8.40;99.90;;;;;;4953808;28;20189;-51
2023/12/29 04:14:04;;;;;;;10.50;1.43;;;8.30;99.90;;;;;;4943757;28;20208;-52
2023/12/29 04:16:30;;;;;;;4.23;1.63;;;8.30;99.90;;;;;;4940684;29;21071;-56
2023/12/29 04:18:55;;;;;;;2.47;1.30;;;8.30;99.90;;;;;;4938364;28;20631;-51
2023/12/29 04:21:21;;;;;;;5.90;1.30;;;8.30;99.90;;;;;;4954061;28;20193;-55
2023/12/29 04:23:46;;;;;;;6.43;1.60;;;8.50;99.90;;;;;;4945521;28;20213;-52
2023/12/29 04:26:12;;;;;;;3.67;1.70;;;8.40;99.90;;;;;;4953806;28;20615;-53
2023/12/29 04:28:38;;;;;;;5.80;1.60;;;8.40;99.90;;;;;;4953706;28;20730;-51
2023/12/29 04:31:03;;;;;;;4.27;1.40;;;8.40;99.90;;;;;;4945473;28;20210;-54
2023/12/29 04:33:29;;;;;;;4.97;1.43;;;8.40;99.90;;;;;;4945177;28;20225;-52
2023/12/29 04:35:54;;;;;;;4.30;1.43;;;8.40;99.90;;;;;;4953715;28;20606;-53
2023/12/29 04:38:20;;;;;;;7.67;1.53;;;8.40;99.90;;;;;;4953704;28;20194;-58
2023/12/29 04:40:49;;;;;;;5.73;1.60;;;8.40;99.90;;;;;;4945746;28;20191;-53
2023/12/29 04:43:15;;;;;;;3.67;1.50;;;8.50;99.90;;;;;;4944912;28;20625;-51
2023/12/29 04:45:40;;;;;;;7.47;1.23;;;8.50;99.90;;;;;;4945720;28;20190;-55
2023/12/29 04:48:06;;;;;;;6.70;1.50;;;8.60;99.90;;;;;;4951028;28;20278;-54
2023/12/29 04:50:32;;;;;;;5.53;1.57;;;8.70;99.90;;;;;;4942201;29;20211;-51
2023/12/29 04:52:57;;;;;;;4.53;1.60;;;8.70;99.90;;;;;;4942609;28;20588;-53
2023/12/29 04:55:23;;;;;;;2.77;1.30;;;8.80;99.90;;;;;;4953406;28;20654;-53
2023/12/29 04:57:48;;;;;;;3.53;1.20;;;8.80;99.90;;;;;;4953240;28;20330;-60
2023/12/29 05:00:14;;;;;;;9.37;1.47;;;8.80;99.90;;;;;;4953409;28;20266;-52
2023/12/29 05:02:40;;;;;;;8.00;1.87;;;8.80;99.90;;;;;;4944798;28;20210;-51
2023/12/29 05:05:05;;;;;;;4.63;1.50;;;8.80;99.90;;;;;;4953090;28;20185;-56
2023/12/29 05:07:31;;;;;;;4.93;1.00;;;8.80;99.90;;;;;;4945274;28;20178;-56
2023/12/29 05:09:57;;;;;;;6.33;1.77;;;8.80;99.90;;;;;;4951711;28;20662;-56
2023/12/29 05:12:22;;;;;;;5.60;1.40;;;8.90;99.90;;;;;;4948346;28;20262;-52
2023/12/29 05:14:48;;;;;;;5.20;2.00;;;8.80;99.90;;;;;;4949657;29;20547;-52
2023/12/29 05:17:13;;;;;;;4.70;1.47;;;8.80;99.90;;;;;;4952976;28;20660;-54
2023/12/29 05:19:39;;;;;;;3.60;1.20;;;8.80;99.90;;;;;;4953105;28;20266;-54
2023/12/29 05:22:04;;;;;;;4.17;1.10;;;8.80;99.90;;;;;;4942278;28;20733;-54
2023/12/29 05:24:30;;;;;;;3.47;1.20;;;8.70;99.90;;;;;;4947145;29;20236;-53
2023/12/29 05:26:55;;;;;;;5.97;1.17;;;8.70;99.90;;;;;;4943993;28;20655;-54
2023/12/29 05:29:21;;;;;;;12.27;1.40;;;8.70;99.90;;;;;;4938001;29;20708;-56
2023/12/29 05:31:46;;;;;;;12.47;1.50;;;8.80;99.90;;;;;;4952199;28;20822;-53
2023/12/29 05:34:12;;;;;;;4.80;1.30;;;8.80;99.90;;;;;;4952549;28;20229;-53
2023/12/29 05:36:38;;;;;;;9.87;1.70;;;8.70;99.90;;;;;;4952806;28;20237;-55
2023/12/29 05:39:04;;;;;;;4.87;1.10;;;8.70;99.90;;;;;;4942804;28;20186;-53
2023/12/29 05:41:29;;;;;;;4.77;1.20;;;8.60;99.90;;;;;;4937742;29;20185;-60
2023/12/29 05:43:57;;;;;;;8.30;1.77;;;8.70;99.90;;;;;;4944252;28;20222;-53
2023/12/29 05:46:23;;;;;;;6.97;1.23;;;8.70;99.90;;;;;;4952651;28;20241;-52
2023/12/29 05:48:49;;;;;;;4.00;2.20;;;8.80;99.90;;;;;;4944954;28;20187;-55
2023/12/29 05:51:14;;;;;;;7.30;1.53;;;8.70;99.90;;;;;;4951296;29;20194;-52
2023/12/29 05:53:40;;;;;;;6.23;1.37;;;8.60;99.90;;;;;;4951851;28;20222;-56
2023/12/29 05:56:06;;;;;;;7.90;1.30;;;8.70;99.90;;;;;;4950045;28;20277;-54
2023/12/29 05:58:32;;;;;;;5.97;1.57;;;8.70;99.90;;;;;;4946798;29;20291;-57
2023/12/29 06:01:01;;;;;;;7.83;1.80;;;8.70;99.90;;;;;;4936471;28;20190;-53
2023/12/29 06:03:27;;;;;;;8.53;1.50;;;8.80;99.90;;;;;;4951821;28;20210;-56
2023/12/29 06:05:53;;;;;;;8.13;1.47;;;8.70;99.90;;;;;;4949086;28;20626;-53
2023/12/29 06:08:19;;;;;;;3.80;1.27;;;8.70;99.90;;;;;;4941217;29;20195;-56
2023/12/29 06:10:44;;;;;;;6.30;1.40;;;8.70;99.90;;;;;;4948364;29;20178;-56
2023/12/29 06:13:10;;;;;;;3.07;1.60;;;8.80;99.90;;;;;;4951375;28;20202;-56
2023/12/29 06:15:36;;;;;;;5.27;1.73;;;8.80;99.90;;;;;;4946038;28;20211;-54
2023/12/29 06:18:02;;;;;;;8.77;1.77;;;8.90;99.90;;;;;;4942511;29;20220;-55
2023/12/29 06:20:27;;;;;;;2.77;1.27;;;8.90;99.90;;;;;;4952370;28;20241;-54
2023/12/29 06:22:53;;;;;;;7.10;1.53;;;8.90;99.90;;;;;;4950889;28;20619;-53
2023/12/29 06:25:19;;;;;;;5.13;1.50;;;8.90;99.90;;;;;;4936955;29;20265;-53
2023/12/29 06:27:44;;;;;;;4.40;1.50;;;8.90;99.90;;;;;;4944763;28;20167;-53
2023/12/29 06:30:10;;;;;;;5.43;1.27;;;9.00;99.90;;;;;;4948713;29;20183;-51
2023/12/29 06:32:36;;;;;;;7.00;1.57;;;8.90;99.90;;;;;;4938335;28;20202;-57
2023/12/29 06:35:03;;;;;;;5.80;1.30;;;8.90;99.90;;;;;;4952065;28;20178;-55
2023/12/29 06:37:28;;;;;;;6.90;1.50;;;8.90;99.90;;;;;;4944268;28;20257;-55
2023/12/29 06:39:54;;;;;;;8.73;1.90;;;8.90;99.90;;;;;;4948845;28;20724;-51
2023/12/29 06:42:20;;;;;;;3.50;1.17;;;8.90;99.90;;;;;;4939327;28;20199;-55
2023/12/29 06:44:46;;;;;;;7.03;1.40;;;9.00;99.90;;;;;;4940442;28;20313;-52
2023/12/29 06:47:12;;;;;;;6.67;1.60;;;8.90;99.90;;;;;;4945927;28;20237;-52
2023/12/29 06:49:39;;;;;;;4.57;1.10;;;8.90;99.90;;;;;;4947618;29;20183;-53
2023/12/29 06:52:05;;;;;;;6.67;1.10;;;8.90;99.90;;;;;;4941632;28;20180;-55
2023/12/29 06:54:31;;;;;;;3.50;1.03;;;8.90;99.90;;;;;;4949433;29;20190;-56
2023/12/29 06:56:56;;;;;;;5.73;1.30;;;8.90;99.90;;;;;;4947737;28;20238;-54
2023/12/29 06:59:22;;;;;;;3.47;1.30;;;8.80;99.90;;;;;;4947639;29;20589;-52
2023/12/29 07:01:48;;;;;;;6.70;1.60;;;8.80;99.90;;;;;;4947049;28;20179;-53
2023/12/29 07:04:15;;;;;;;7.00;1.60;;;8.70;99.90;;;;;;4955261;28;20225;-53
2023/12/29 07:06:41;;;;;;;4.13;1.30;;;8.70;99.90;;;;;;4955434;28;20193;-56
2023/12/29 07:09:08;;;;;;;5.20;1.57;;;8.70;99.90;;;;;;4953114;28;20202;-55
2023/12/29 07:11:34;;;;;;;4.17;1.40;;;8.70;99.90;;;;;;4943584;29;20242;-56
2023/12/29 07:14:00;;;;;;;7.07;1.50;;;8.70;99.90;;;;;;4951822;28;20210;-52
2023/12/29 07:16:25;;;;;;;5.23;1.10;;;8.60;99.90;;;;;;4948611;29;20190;-55
2023/12/29 07:18:51;;;;;;;4.83;1.20;;;8.60;99.90;;;;;;4955120;28;20188;-55
2023/12/29 07:21:17;;;;;;;6.53;1.20;;;8.60;99.90;;;;;;4955202;28;20277;-53
2023/12/29 07:23:43;;;;;;;3.73;0.87;;;8.70;99.90;;;;;;4954773;28;20217;-57
2023/12/29 07:26:09;;;;;;;3.90;1.20;;;8.70;99.90;;;;;;4954923;28;20178;-51
2023/12/29 07:28:34;;;;;;;3.73;1.10;;;8.70;99.90;;;;;;4955111;28;20174;-52
2023/12/29 07:31:01;;;;;;;5.17;0.90;;;8.70;99.90;;;;;;4945648;28;20191;-51
2023/12/29 07:33:26;;;;;;;5.03;1.03;;;8.70;99.90;;;;;;4947799;28;20222;-51
2023/12/29 07:35:52;;;;;;;5.53;1.57;;;8.70;99.90;;;;;;4946651;28;20674;-52
2023/12/29 07:38:18;;;;;;;7.93;1.57;;;8.70;99.90;;;;;;4947268;29;20282;-53
2023/12/29 07:40:44;;;;;;;5.83;1.20;;;8.60;99.90;;;;;;4946992;28;20178;-53
2023/12/29 07:43:09;;;;;;;7.30;1.40;;;8.70;99.90;;;;;;4946118;28;20214;-56
2023/12/29 07:45:35;;;;;;;6.47;1.20;;;8.70;99.90;;;;;;4954074;28;20202;-52
2023/12/29 07:48:04;;;;;;;5.90;0.97;;;8.60;99.90;;;;;;4952247;28;20178;-56
2023/12/29 07:50:30;;;;;;;8.47;1.20;;;8.60;99.90;;;;;;4940282;29;20221;-55
2023/12/29 07:52:55;;;;;;;2.87;1.60;;;8.60;99.90;;;;;;4952482;28;20281;-51
2023/12/29 07:55:21;;;;;;;5.13;1.43;;;8.60;99.90;;;;;;4946587;29;20178;-51
2023/12/29 07:57:48;;;;;;;5.10;1.30;;;8.70;99.90;;;;;;4946679;28;20187;-51
2023/12/29 08:00:16;;;;;;;5.33;1.43;;;8.70;99.90;;;;;;4953591;29;20242;-52
2023/12/29 08:02:42;;;;;;;5.30;1.27;;;8.70;99.90;;;;;;4946330;28;20282;-56
2023/12/29 08:05:10;;;;;;;3.23;1.20;;;8.70;99.90;;;;;;4951814;28;20329;-53
2023/12/29 08:07:39;;;;;;;7.37;1.40;;;8.70;99.90;;;;;;4947912;28;20754;-54
2023/12/29 08:10:06;;;;;;;3.07;1.30;;;8.80;99.90;;;;;;4944303;29;20266;-50
2023/12/29 08:12:33;;;;;;;5.80;1.33;;;8.80;99.90;;;;;;4947400;28;20203;-54
2023/12/29 08:14:59;;;;;;;2.30;1.00;;;8.80;99.90;;;;;;4951392;29;20206;-50
2023/12/29 08:17:25;;;;;;;2.40;0.90;;;8.80;99.90;;;;;;4947826;29;20248;-50
2023/12/29 08:19:50;;;;;;;7.63;1.10;;;8.90;99.90;;;;;;4942264;29;20301;-54
2023/12/29 08:22:16;;;;;;;5.30;2.23;;;9.00;99.90;;;;;;4949632;28;20236;-54
2023/12/29 08:24:44;;;;;;;3.67;1.23;;;9.00;99.90;;;;;;4949162;29;20218;-55
2023/12/29 08:27:12;;;;;;;3.90;0.93;;;9.00;99.90;;;;;;4944571;28;20182;-52
2023/12/29 08:29:38;;;;;;;3.97;1.50;;;8.90;99.90;;;;;;4945333;28;20189;-51
2023/12/29 08:32:04;;;;;;;4.47;1.30;;;9.00;99.90;;;;;;4950556;28;20187;-54
2023/12/29 08:34:29;;;;;;;1.97;1.00;;;9.10;99.90;;;;;;4945240;29;20633;-53
2023/12/29 08:36:55;;;;;;;4.97;1.10;;;9.10;99.90;;;;;;4944581;28;20194;-54
2023/12/29 08:39:20;;;;;;;6.30;1.50;;;9.10;99.90;;;;;;4949339;28;20195;-54
2023/12/29 08:41:49;;;;;;;2.27;1.30;;;9.20;99.90;;;;;;4948712;29;20198;-54
2023/12/29 08:44:15;;;;;;;4.47;1.20;;;9.20;99.90;;;;;;4952721;28;20593;-56
2023/12/29 08:46:40;;;;;;;4.93;1.50;;;9.30;99.90;;;;;;4945098;28;20186;-51
2023/12/29 08:49:07;;;;;;;3.47;1.20;;;9.20;99.90;;;;;;4944956;28;20214;-50
2023/12/29 08:51:32;;;;;;;3.90;1.20;;;9.30;99.90;;;;;;4947266;28;20175;-51
2023/12/29 08:53:58;;;;;;;4.17;1.20;;;9.30;99.90;;;;;;4950178;29;20211;-51
2023/12/29 08:56:24;;;;;;;2.63;1.10;;;9.30;99.90;;;;;;4951496;28;20179;-50
2023/12/29 08:58:49;;;;;;;5.17;0.90;;;9.40;99.90;;;;;;4944988;28;20182;-53
2023/12/29 09:01:15;;;;;;;5.77;1.40;;;9.50;99.90;;;;;;4941585;28;20784;-50
2023/12/29 09:03:40;;;;;;;4.33;1.00;;;9.60;99.90;;;;;;4939384;29;20612;-56
2023/12/29 09:06:08;;;;;;;2.47;1.23;;;9.70;99.90;;;;;;4942872;28;20589;-54
2023/12/29 09:08:34;;;;;;;5.63;2.33;;;9.80;99.90;;;;;;4933412;29;20183;-54
2023/12/29 09:11:00;;;;;;;2.43;1.40;;;9.90;99.90;;;;;;4933474;29;20183;-55
2023/12/29 09:13:26;;;;;;;1.63;0.80;;;10.00;99.90;;;;;;4940759;28;20586;-53
2023/12/29 09:15:53;;;;;;;4.97;1.20;;;10.00;99.90;;;;;;4949105;28;20677;-51
2023/12/29 09:18:18;;;;;;;2.70;0.83;;;10.00;99.90;;;;;;4944808;29;20290;-54
2023/12/29 09:20:44;;;;;;;3.80;1.13;;;10.00;99.90;;;;;;4937634;28;20274;-53
2023/12/29 09:23:10;;;;;;;3.07;1.23;;;10.00;99.90;;;;;;4942656;28;20584;-53
2023/12/29 09:25:35;;;;;;;2.73;0.77;;;10.00;99.90;;;;;;4944581;28;20208;-55
2023/12/29 09:28:01;;;;;;;3.40;1.10;;;10.00;99.90;;;;;;4945391;28;20617;-54
2023/12/29 09:30:27;;;;;;;4.83;1.47;;;10.10;99.90;;;;;;4941171;29;20183;-54
2023/12/29 09:32:52;;;;;;;2.40;0.93;;;10.20;99.90;;;;;;4946520;28;20637;-53
2023/12/29 09:35:20;;;;;;;4.40;1.50;;;10.10;99.90;;;;;;4944499;29;20725;-58
2023/12/29 09:37:47;;;;;;;2.60;1.00;;;10.20;99.90;;;;;;4945078;28;20179;-57
2023/12/29 09:40:13;;;;;;;5.17;1.00;;;10.20;99.90;;;;;;4940898;29;20190;-55
2023/12/29 09:42:46;;;;;;;3.70;1.10;;;10.10;99.90;;;;;;4940594;29;20561;-55
2023/12/29 09:45:12;;;;;;;5.67;1.00;;;10.10;99.90;;;;;;4940745;29;20282;-57
2023/12/29 09:47:41;;;;;;;2.23;1.27;;;10.10;99.90;;;;;;4947234;29;20281;-56
2023/12/29 09:50:11;;;;;;;7.00;2.30;;;10.10;99.90;;;;;;4951726;28;20182;-55
2023/12/29 09:52:39;;;;;;;5.23;1.60;;;10.10;99.90;;;;;;4951150;28;20297;-52
2023/12/29 09:55:09;;;;;;;5.50;2.00;;;10.10;99.90;;;;;;4951718;28;20214;-53
2023/12/29 09:57:35;;;;;;;5.17;1.60;;;10.00;99.90;;;;;;4938438;28;20187;-57
2023/12/29 10:00:01;;;;;;;7.10;2.03;;;10.00;99.90;;;;;;4933856;29;20202;-54
2023/12/29 10:02:27;;;;;;;9.50;1.50;;;10.00;99.90;;;;;;4946450;28;20562;-57
2023/12/29 10:04:53;;;;;;;4.37;1.77;;;10.00;99.90;;;;;;4940820;29;20231;-53
2023/12/29 10:07:28;;;;;;;4.47;1.50;;;10.00;99.90;;;;;;4940746;28;20179;-54
2023/12/29 10:09:58;;;;;;;4.90;1.00;;;10.10;99.90;;;;;;4941128;29;20229;-52
2023/12/29 10:12:24;;;;;;;3.60;0.90;;;10.10;99.90;;;;;;4943214;28;20539;-52
2023/12/29 10:15:05;;;;;;;3.57;1.07;;;10.10;99.90;;;;;;4951622;28;20182;-51
2023/12/29 10:17:48;;;;;;;5.77;0.93;;;10.30;99.90;;;;;;4943761;28;20182;-57
2023/12/29 10:20:22;;;;;;;4.27;1.10;;;10.30;99.90;;;;;;4935742;28;20213;-51
2023/12/29 10:23:09;;;;;;;3.73;1.10;;;10.50;99.90;;;;;;4950962;28;20208;-53
2023/12/29 10:25:36;;;;;;;4.80;0.80;;;10.70;99.90;;;;;;4946322;29;20806;-54
2023/12/29 10:28:02;;;;;;;5.17;1.63;;;10.60;99.90;;;;;;4944441;28;20266;-54
2023/12/29 10:30:28;;;;;;;4.10;1.80;;;10.70;99.90;;;;;;4944446;28;20187;-55
2023/12/29 10:32:54;;;;;;;5.90;0.90;;;10.70;99.90;;;;;;4935509;29;20229;-54
2023/12/29 10:35:20;;;;;;;3.90;1.10;;;10.60;99.90;;;;;;4944720;29;20559;-52
2023/12/29 10:37:45;;;;;;;4.57;1.03;;;10.50;99.90;;;;;;4951225;28;20194;-54
2023/12/29 10:40:21;;;;;;;5.93;1.17;;;10.50;99.90;;;;;;4953067;28;20204;-56
2023/12/29 10:43:05;;;;;;;5.37;0.70;;;10.40;99.90;;;;;;4943466;28;20218;-56
2023/12/29 10:45:30;;;;;;;1.63;0.70;;;10.40;99.90;;;;;;4948945;29;20658;-58
2023/12/29 10:47:56;;;;;;;1.47;0.90;;;10.30;99.90;;;;;;4955022;28;20196;-54
2023/12/29 10:50:21;;;;;;;1.30;0.83;;;10.40;99.90;;;;;;4947312;28;20190;-54
2023/12/29 10:52:47;;;;;;;1.10;0.53;;;10.30;99.90;;;;;;4939612;28;20207;-56
2023/12/29 10:55:12;;;;;;;3.03;1.00;;;10.40;99.90;;;;;;4946459;29;20571;-53
2023/12/29 10:57:39;;;;;;;5.80;0.90;;;10.40;99.90;;;;;;4949062;28;20222;-51
2023/12/29 11:00:07;;;;;;;2.83;0.90;;;10.50;99.90;;;;;;4951521;29;20197;-53
2023/12/29 11:02:33;;;;;;;2.20;0.70;;;10.50;99.90;;;;;;4943107;29;20358;-53
2023/12/29 11:05:07;;;;;;;1.27;0.70;;;10.50;99.90;;;;;;4952277;29;20206;-55
2023/12/29 11:07:38;;;;;;;3.07;0.80;;;10.50;99.90;;;;;;4949735;28;20257;-51
2023/12/29 11:10:05;;;;;;;2.87;0.60;;;10.40;99.90;;;;;;4943361;29;20665;-55
2023/12/29 11:12:39;;;;;;;3.90;0.83;;;10.40;99.90;;;;;;4947898;28;20222;-54
2023/12/29 11:15:06;;;;;;;1.60;0.60;;;10.40;99.90;;;;;;4946856;28;20195;-50
2023/12/29 11:17:34;;;;;;;1.80;0.60;;;10.40;99.90;;;;;;4941707;28;20179;-59
2023/12/29 11:20:01;;;;;;;2.93;0.60;;;10.40;99.90;;;;;;4943499;29;20195;-58
2023/12/29 11:22:32;;;;;;;3.30;0.50;;;10.40;99.90;;;;;;4942692;29;20295;-58
2023/12/29 11:25:00;;;;;;;1.30;0.50;;;10.40;99.90;;;;;;4943685;29;20206;-59
2023/12/29 11:27:30;;;;;;;0.37;0.33;;;10.30;99.90;;;;;;4948076;29;20233;-54
2023/12/29 11:30:00;;;;;;;4.23;0.70;;;10.40;99.90;;;;;;4954421;28;20616;-57
2023/12/29 11:32:56;;;;;;;2.30;0.60;;;10.50;99.90;;;;;;4953632;28;20756;-56
2023/12/29 11:35:29;;;;;;;1.10;0.50;;;10.50;99.90;;;;;;4935288;29;20258;-59
2023/12/29 11:38:54;;;;;;;1.90;0.70;;;10.50;99.90;;;;;;4951741;29;20179;-59
2023/12/29 11:41:27;;;;;;;4.30;1.20;;;10.40;99.90;;;;;;4910357;29;20674;-55
2023/12/29 11:43:57;;;;;;;2.40;1.07;;;10.40;99.90;;;;;;4942329;28;20215;-57
2023/12/29 11:46:53;;;;;;;1.07;0.70;;;10.20;99.90;;;;;;4946907;28;20209;-57
2023/12/29 11:49:18;;;;;;;1.10;0.50;;;10.30;99.90;;;;;;4941853;28;20588;-54
2023/12/29 11:51:49;;;;;;;1.30;0.50;;;10.30;99.90;;;;;;4946670;28;20270;-56
2023/12/29 11:54:27;;;;;;;1.47;0.43;;;10.30;99.90;;;;;;4953368;28;20721;-59
2023/12/29 11:56:54;;;;;;;2.77;0.70;;;10.30;99.90;;;;;;4946255;28;20191;-57
2023/12/29 11:59:27;;;;;;;2.00;0.60;;;10.30;99.90;;;;;;4946027;28;20217;-58
2023/12/29 12:01:56;;;;;;;0.67;0.53;;;10.40;99.90;;;;;;4945492;28;20190;-55
2023/12/29 12:04:44;;;;;;;1.63;0.70;;;10.40;99.90;;;;;;4946230;28;20210;-56
2023/12/29 12:07:21;;;;;;;1.87;0.50;;;10.50;99.90;;;;;;4945689;28;20191;-56
2023/12/29 12:09:49;;;;;;;1.57;0.67;;;10.50;99.90;;;;;;4939015;28;20253;-58
2023/12/29 12:12:34;;;;;;;0.77;0.50;;;10.60;99.90;;;;;;4944444;28;20183;-58
2023/12/29 12:15:01;;;;;;;1.23;0.50;;;10.60;99.90;;;;;;4953504;29;20189;-54
2023/12/29 12:17:34;;;;;;;3.30;0.77;;;10.60;99.90;;;;;;4953512;28;20190;-56
2023/12/29 12:20:09;;;;;;;0.93;0.50;;;10.70;99.90;;;;;;4952964;28;20186;-59
2023/12/29 12:22:36;;;;;;;2.27;1.07;;;10.80;99.90;;;;;;4947008;28;20622;-59
2023/12/29 12:25:03;;;;;;;3.17;1.60;;;10.80;99.90;;;;;;4937499;28;20215;-59
2023/12/29 12:27:30;;;;;;;3.53;2.20;;;10.70;99.90;;;;;;4953462;28;20268;-56
2023/12/29 12:29:57;;;;;;;8.83;4.73;;;10.70;99.90;;;;;;4937344;28;20701;-56
2023/12/29 12:32:23;;;;;;;2.50;1.00;;;10.80;99.90;;;;;;4937332;28;20182;-56
2023/12/29 12:34:49;;;;;;;3.57;1.67;;;10.90;99.90;;;;;;4938095;28;20190;-54
2023/12/29 12:37:22;;;;;;;4.07;1.40;;;10.90;99.90;;;;;;4942073;29;20194;-57
2023/12/29 12:39:49;;;;;;;5.13;1.70;;;10.80;99.90;;;;;;4949040;29;20285;-56
2023/12/29 12:42:16;;;;;;;1.40;0.80;;;10.80;99.90;;;;;;4952268;28;20198;-59
2023/12/29 12:44:46;;;;;;;3.17;1.67;;;10.80;99.90;;;;;;4945148;28;20210;-60
2023/12/29 12:47:17;;;;;;;3.13;1.13;;;10.70;99.90;;;;;;4950517;28;20265;-60
2023/12/29 12:49:43;;;;;;;2.83;1.10;;;10.80;99.90;;;;;;4948193;28;20226;-60
2023/12/29 12:52:09;;;;;;;1.37;0.93;;;10.80;99.90;;;;;;4942425;28;20661;-60